sensor_id;sensor_type;location;lat;lon;timestamp;P1;durP1;ratioP1;P2;durP2;ratioP2
83272;SDS011;73177;51.584;5.188;2024-01-07T00:00:28;24.30;;;12.27;;
83272;SDS011;73177;51.584;5.188;2024-01-07T00:02:55;24.67;;;10.95;;
83272;SDS011;73177;51.584;5.188;2024-01-07T00:05:20;21.90;;;10.57;;
83272;SDS011;73177;51.584;5.188;2024-01-07T00:07:45;23.50;;;11.27;;
83272;SDS011;73177;51.584;5.188;2024-01-07T00:10:10;23.17;;;11.60;;
83272;SDS011;73177;51.584;5.188;2024-01-07T00:12:36;25.30;;;12.47;;
83272;SDS011;73177;51.584;5.188;2024-01-07T00:15:01;28.03;;;11.43;;
83272;SDS011;73177;51.584;5.188;2024-01-07T00:17:26;21.60;;;11.20;;
83272;SDS011;73177;51.584;5.188;2024-01-07T00:19:51;20.10;;;9.70;;
83272;SDS011;73177;51.584;5.188;2024-01-07T00:22:16;23.53;;;10.93;;
83272;SDS011;73177;51.584;5.188;2024-01-07T00:24:42;23.48;;;10.60;;
83272;SDS011;73177;51.584;5.188;2024-01-07T00:27:07;22.57;;;10.50;;
83272;SDS011;73177;51.584;5.188;2024-01-07T00:29:33;24.63;;;12.52;;
83272;SDS011;73177;51.584;5.188;2024-01-07T00:32:00;24.10;;;11.23;;
83272;SDS011;73177;51.584;5.188;2024-01-07T00:34:25;23.93;;;11.20;;
83272;SDS011;73177;51.584;5.188;2024-01-07T00:36:50;26.10;;;11.23;;
83272;SDS011;73177;51.584;5.188;2024-01-07T00:39:15;24.13;;;11.23;;
83272;SDS011;73177;51.584;5.188;2024-01-07T00:41:40;24.60;;;11.97;;
83272;SDS011;73177;51.584;5.188;2024-01-07T00:44:05;25.63;;;12.20;;
83272;SDS011;73177;51.584;5.188;2024-01-07T00:46:31;25.57;;;12.07;;
83272;SDS011;73177;51.584;5.188;2024-01-07T00:48:56;26.77;;;12.77;;
83272;SDS011;73177;51.584;5.188;2024-01-07T00:51:21;23.73;;;11.47;;
83272;SDS011;73177;51.584;5.188;2024-01-07T00:53:46;23.40;;;11.13;;
83272;SDS011;73177;51.584;5.188;2024-01-07T00:56:11;27.20;;;11.37;;
83272;SDS011;73177;51.584;5.188;2024-01-07T00:58:37;24.17;;;11.93;;
83272;SDS011;73177;51.584;5.188;2024-01-07T01:01:02;28.05;;;13.93;;
83272;SDS011;73177;51.584;5.188;2024-01-07T01:03:27;26.13;;;12.10;;
83272;SDS011;73177;51.584;5.188;2024-01-07T01:05:53;21.47;;;10.23;;
83272;SDS011;73177;51.584;5.188;2024-01-07T01:08:18;25.80;;;10.83;;
83272;SDS011;73177;51.584;5.188;2024-01-07T01:10:43;28.15;;;13.85;;
83272;SDS011;73177;51.584;5.188;2024-01-07T01:13:08;26.27;;;13.03;;
83272;SDS011;73177;51.584;5.188;2024-01-07T01:15:34;25.10;;;11.80;;
83272;SDS011;73177;51.584;5.188;2024-01-07T01:17:59;27.57;;;12.53;;
83272;SDS011;73177;51.584;5.188;2024-01-07T01:20:24;23.73;;;11.48;;
83272;SDS011;73177;51.584;5.188;2024-01-07T01:22:49;24.87;;;12.27;;
83272;SDS011;73177;51.584;5.188;2024-01-07T01:25:15;26.60;;;12.57;;
83272;SDS011;73177;51.584;5.188;2024-01-07T01:27:40;25.00;;;11.30;;
83272;SDS011;73177;51.584;5.188;2024-01-07T01:30:05;26.87;;;13.63;;
83272;SDS011;73177;51.584;5.188;2024-01-07T01:32:31;27.75;;;12.00;;
83272;SDS011;73177;51.584;5.188;2024-01-07T01:34:56;21.90;;;10.73;;
83272;SDS011;73177;51.584;5.188;2024-01-07T01:37:21;33.00;;;13.97;;
83272;SDS011;73177;51.584;5.188;2024-01-07T01:39:46;24.00;;;10.97;;
83272;SDS011;73177;51.584;5.188;2024-01-07T01:42:12;28.95;;;13.13;;
83272;SDS011;73177;51.584;5.188;2024-01-07T01:44:37;26.27;;;11.37;;
83272;SDS011;73177;51.584;5.188;2024-01-07T01:47:03;28.47;;;13.03;;
83272;SDS011;73177;51.584;5.188;2024-01-07T01:49:28;26.05;;;11.98;;
83272;SDS011;73177;51.584;5.188;2024-01-07T01:51:53;27.67;;;12.77;;
83272;SDS011;73177;51.584;5.188;2024-01-07T01:54:19;30.50;;;13.13;;
83272;SDS011;73177;51.584;5.188;2024-01-07T01:56:44;29.15;;;12.95;;
83272;SDS011;73177;51.584;5.188;2024-01-07T01:59:10;27.23;;;12.95;;
83272;SDS011;73177;51.584;5.188;2024-01-07T02:01:36;26.52;;;12.15;;
83272;SDS011;73177;51.584;5.188;2024-01-07T02:04:01;31.30;;;13.00;;
83272;SDS011;73177;51.584;5.188;2024-01-07T02:06:26;29.77;;;13.17;;
83272;SDS011;73177;51.584;5.188;2024-01-07T02:08:51;32.47;;;14.75;;
83272;SDS011;73177;51.584;5.188;2024-01-07T02:11:21;31.77;;;12.87;;
83272;SDS011;73177;51.584;5.188;2024-01-07T02:13:46;30.15;;;13.95;;
83272;SDS011;73177;51.584;5.188;2024-01-07T02:16:11;31.45;;;12.68;;
83272;SDS011;73177;51.584;5.188;2024-01-07T02:18:37;32.30;;;13.70;;
83272;SDS011;73177;51.584;5.188;2024-01-07T02:21:02;28.27;;;12.45;;
83272;SDS011;73177;51.584;5.188;2024-01-07T02:23:28;33.27;;;13.83;;
83272;SDS011;73177;51.584;5.188;2024-01-07T02:25:53;31.20;;;13.07;;
83272;SDS011;73177;51.584;5.188;2024-01-07T02:28:18;26.47;;;11.03;;
83272;SDS011;73177;51.584;5.188;2024-01-07T02:30:43;33.63;;;13.37;;
83272;SDS011;73177;51.584;5.188;2024-01-07T02:33:08;29.70;;;13.40;;
83272;SDS011;73177;51.584;5.188;2024-01-07T02:35:34;34.20;;;14.77;;
83272;SDS011;73177;51.584;5.188;2024-01-07T02:37:59;31.70;;;13.17;;
83272;SDS011;73177;51.584;5.188;2024-01-07T02:40:24;29.33;;;13.83;;
83272;SDS011;73177;51.584;5.188;2024-01-07T02:42:49;26.97;;;12.27;;
83272;SDS011;73177;51.584;5.188;2024-01-07T02:45:15;33.97;;;13.87;;
83272;SDS011;73177;51.584;5.188;2024-01-07T02:47:40;31.00;;;13.20;;
83272;SDS011;73177;51.584;5.188;2024-01-07T02:50:05;27.03;;;12.07;;
83272;SDS011;73177;51.584;5.188;2024-01-07T02:52:30;27.77;;;12.80;;
83272;SDS011;73177;51.584;5.188;2024-01-07T02:54:56;30.70;;;12.23;;
83272;SDS011;73177;51.584;5.188;2024-01-07T02:57:21;34.40;;;14.23;;
83272;SDS011;73177;51.584;5.188;2024-01-07T02:59:46;29.47;;;12.03;;
83272;SDS011;73177;51.584;5.188;2024-01-07T03:02:11;30.87;;;12.77;;
83272;SDS011;73177;51.584;5.188;2024-01-07T03:04:36;38.07;;;14.77;;
83272;SDS011;73177;51.584;5.188;2024-01-07T03:07:01;34.03;;;12.43;;
83272;SDS011;73177;51.584;5.188;2024-01-07T03:09:27;38.87;;;14.97;;
83272;SDS011;73177;51.584;5.188;2024-01-07T03:11:52;31.52;;;13.00;;
83272;SDS011;73177;51.584;5.188;2024-01-07T03:16:46;33.67;;;14.65;;
83272;SDS011;73177;51.584;5.188;2024-01-07T03:19:11;42.30;;;17.17;;
83272;SDS011;73177;51.584;5.188;2024-01-07T03:21:36;43.27;;;15.70;;
83272;SDS011;73177;51.584;5.188;2024-01-07T03:24:01;36.87;;;14.70;;
83272;SDS011;73177;51.584;5.188;2024-01-07T03:26:29;42.33;;;15.60;;
83272;SDS011;73177;51.584;5.188;2024-01-07T03:28:54;41.35;;;17.05;;
83272;SDS011;73177;51.584;5.188;2024-01-07T03:31:19;37.07;;;14.43;;
83272;SDS011;73177;51.584;5.188;2024-01-07T03:33:46;47.58;;;17.05;;
83272;SDS011;73177;51.584;5.188;2024-01-07T03:36:11;48.17;;;18.70;;
83272;SDS011;73177;51.584;5.188;2024-01-07T03:38:37;41.50;;;17.05;;
83272;SDS011;73177;51.584;5.188;2024-01-07T03:41:02;41.00;;;15.90;;
83272;SDS011;73177;51.584;5.188;2024-01-07T03:43:28;41.90;;;16.90;;
83272;SDS011;73177;51.584;5.188;2024-01-07T03:45:53;39.97;;;17.43;;
83272;SDS011;73177;51.584;5.188;2024-01-07T03:48:18;47.30;;;17.17;;
83272;SDS011;73177;51.584;5.188;2024-01-07T03:50:44;44.28;;;18.27;;
83272;SDS011;73177;51.584;5.188;2024-01-07T03:53:09;41.90;;;17.08;;
83272;SDS011;73177;51.584;5.188;2024-01-07T03:55:37;43.28;;;16.35;;
83272;SDS011;73177;51.584;5.188;2024-01-07T03:58:02;44.23;;;18.83;;
83272;SDS011;73177;51.584;5.188;2024-01-07T04:00:28;46.20;;;18.30;;
83272;SDS011;73177;51.584;5.188;2024-01-07T04:02:53;43.83;;;17.93;;
83272;SDS011;73177;51.584;5.188;2024-01-07T04:05:18;42.87;;;16.50;;
83272;SDS011;73177;51.584;5.188;2024-01-07T04:07:43;41.03;;;16.37;;
83272;SDS011;73177;51.584;5.188;2024-01-07T04:10:09;45.40;;;16.63;;
83272;SDS011;73177;51.584;5.188;2024-01-07T04:12:34;39.87;;;16.40;;
83272;SDS011;73177;51.584;5.188;2024-01-07T04:14:59;37.50;;;15.73;;
83272;SDS011;73177;51.584;5.188;2024-01-07T04:17:24;34.00;;;14.53;;
83272;SDS011;73177;51.584;5.188;2024-01-07T04:19:50;34.40;;;14.77;;
83272;SDS011;73177;51.584;5.188;2024-01-07T04:22:15;38.00;;;14.43;;
83272;SDS011;73177;51.584;5.188;2024-01-07T04:24:43;37.67;;;16.43;;
83272;SDS011;73177;51.584;5.188;2024-01-07T04:27:08;33.00;;;14.63;;
83272;SDS011;73177;51.584;5.188;2024-01-07T04:29:34;36.87;;;15.63;;
83272;SDS011;73177;51.584;5.188;2024-01-07T04:31:59;35.70;;;14.00;;
83272;SDS011;73177;51.584;5.188;2024-01-07T04:34:24;35.83;;;16.00;;
83272;SDS011;73177;51.584;5.188;2024-01-07T04:36:49;38.50;;;15.00;;
83272;SDS011;73177;51.584;5.188;2024-01-07T04:39:15;33.03;;;14.75;;
83272;SDS011;73177;51.584;5.188;2024-01-07T04:41:40;30.00;;;13.90;;
83272;SDS011;73177;51.584;5.188;2024-01-07T04:44:05;36.10;;;14.77;;
83272;SDS011;73177;51.584;5.188;2024-01-07T04:46:33;40.87;;;15.07;;
83272;SDS011;73177;51.584;5.188;2024-01-07T04:48:58;33.58;;;14.02;;
83272;SDS011;73177;51.584;5.188;2024-01-07T04:51:23;34.57;;;14.30;;
83272;SDS011;73177;51.584;5.188;2024-01-07T04:53:49;38.40;;;15.03;;
83272;SDS011;73177;51.584;5.188;2024-01-07T04:56:14;34.70;;;14.67;;
83272;SDS011;73177;51.584;5.188;2024-01-07T04:58:39;35.20;;;15.30;;
83272;SDS011;73177;51.584;5.188;2024-01-07T05:01:04;35.10;;;15.05;;
83272;SDS011;73177;51.584;5.188;2024-01-07T05:03:30;36.33;;;14.90;;
83272;SDS011;73177;51.584;5.188;2024-01-07T05:05:55;35.73;;;13.83;;
83272;SDS011;73177;51.584;5.188;2024-01-07T05:08:20;30.50;;;13.53;;
83272;SDS011;73177;51.584;5.188;2024-01-07T05:10:45;43.03;;;14.93;;
83272;SDS011;73177;51.584;5.188;2024-01-07T05:13:10;44.17;;;16.83;;
83272;SDS011;73177;51.584;5.188;2024-01-07T05:15:36;41.40;;;15.33;;
83272;SDS011;73177;51.584;5.188;2024-01-07T05:18:01;35.23;;;14.00;;
83272;SDS011;73177;51.584;5.188;2024-01-07T05:20:27;32.35;;;13.85;;
83272;SDS011;73177;51.584;5.188;2024-01-07T05:22:52;24.97;;;11.80;;
83272;SDS011;73177;51.584;5.188;2024-01-07T05:25:17;33.77;;;13.03;;
83272;SDS011;73177;51.584;5.188;2024-01-07T05:27:42;33.23;;;13.60;;
83272;SDS011;73177;51.584;5.188;2024-01-07T05:30:08;31.27;;;12.63;;
83272;SDS011;73177;51.584;5.188;2024-01-07T05:32:33;33.27;;;13.87;;
83272;SDS011;73177;51.584;5.188;2024-01-07T05:34:59;35.08;;;15.15;;
83272;SDS011;73177;51.584;5.188;2024-01-07T05:37:24;34.47;;;13.57;;
83272;SDS011;73177;51.584;5.188;2024-01-07T05:39:49;39.83;;;14.33;;
83272;SDS011;73177;51.584;5.188;2024-01-07T05:42:14;33.67;;;13.80;;
83272;SDS011;73177;51.584;5.188;2024-01-07T05:44:39;32.53;;;13.03;;
83272;SDS011;73177;51.584;5.188;2024-01-07T05:47:05;29.17;;;13.00;;
83272;SDS011;73177;51.584;5.188;2024-01-07T05:49:30;20.77;;;9.63;;
83272;SDS011;73177;51.584;5.188;2024-01-07T05:51:56;23.48;;;10.82;;
83272;SDS011;73177;51.584;5.188;2024-01-07T05:54:22;24.67;;;10.52;;
83272;SDS011;73177;51.584;5.188;2024-01-07T05:56:47;23.27;;;11.48;;
83272;SDS011;73177;51.584;5.188;2024-01-07T05:59:12;22.53;;;10.87;;
83272;SDS011;73177;51.584;5.188;2024-01-07T06:01:38;23.27;;;11.23;;
83272;SDS011;73177;51.584;5.188;2024-01-07T06:04:03;24.77;;;11.23;;
83272;SDS011;73177;51.584;5.188;2024-01-07T06:06:28;25.03;;;11.27;;
83272;SDS011;73177;51.584;5.188;2024-01-07T06:08:53;24.80;;;12.40;;
83272;SDS011;73177;51.584;5.188;2024-01-07T06:11:19;23.53;;;11.63;;
83272;SDS011;73177;51.584;5.188;2024-01-07T06:13:45;26.50;;;12.35;;
83272;SDS011;73177;51.584;5.188;2024-01-07T06:16:10;21.63;;;10.05;;
83272;SDS011;73177;51.584;5.188;2024-01-07T06:18:36;21.30;;;11.50;;
83272;SDS011;73177;51.584;5.188;2024-01-07T06:21:01;19.67;;;10.20;;
83272;SDS011;73177;51.584;5.188;2024-01-07T06:23:26;24.13;;;10.83;;
83272;SDS011;73177;51.584;5.188;2024-01-07T06:25:51;24.53;;;11.00;;
83272;SDS011;73177;51.584;5.188;2024-01-07T06:28:16;26.27;;;12.97;;
83272;SDS011;73177;51.584;5.188;2024-01-07T06:30:42;27.03;;;12.40;;
83272;SDS011;73177;51.584;5.188;2024-01-07T06:33:07;27.13;;;11.73;;
83272;SDS011;73177;51.584;5.188;2024-01-07T06:35:32;26.97;;;12.33;;
83272;SDS011;73177;51.584;5.188;2024-01-07T06:37:57;23.30;;;11.77;;
83272;SDS011;73177;51.584;5.188;2024-01-07T06:40:22;25.87;;;11.73;;
83272;SDS011;73177;51.584;5.188;2024-01-07T06:42:48;27.10;;;13.27;;
83272;SDS011;73177;51.584;5.188;2024-01-07T06:45:13;26.80;;;13.23;;
83272;SDS011;73177;51.584;5.188;2024-01-07T06:47:39;27.73;;;13.77;;
83272;SDS011;73177;51.584;5.188;2024-01-07T06:50:05;25.03;;;12.03;;
83272;SDS011;73177;51.584;5.188;2024-01-07T06:52:30;24.17;;;12.27;;
83272;SDS011;73177;51.584;5.188;2024-01-07T06:54:56;28.10;;;12.35;;
83272;SDS011;73177;51.584;5.188;2024-01-07T06:57:21;24.93;;;12.33;;
83272;SDS011;73177;51.584;5.188;2024-01-07T06:59:46;25.27;;;12.43;;
83272;SDS011;73177;51.584;5.188;2024-01-07T07:02:11;25.97;;;12.67;;
83272;SDS011;73177;51.584;5.188;2024-01-07T07:04:37;26.50;;;12.77;;
83272;SDS011;73177;51.584;5.188;2024-01-07T07:07:02;25.93;;;13.20;;
83272;SDS011;73177;51.584;5.188;2024-01-07T07:09:27;22.80;;;11.63;;
83272;SDS011;73177;51.584;5.188;2024-01-07T07:11:52;22.07;;;10.40;;
83272;SDS011;73177;51.584;5.188;2024-01-07T07:14:18;26.33;;;12.77;;
83272;SDS011;73177;51.584;5.188;2024-01-07T07:16:43;30.07;;;12.87;;
83272;SDS011;73177;51.584;5.188;2024-01-07T07:19:08;27.70;;;13.57;;
83272;SDS011;73177;51.584;5.188;2024-01-07T07:21:33;23.40;;;11.20;;
83272;SDS011;73177;51.584;5.188;2024-01-07T07:23:58;26.30;;;12.23;;
83272;SDS011;73177;51.584;5.188;2024-01-07T07:26:24;19.57;;;10.57;;
83272;SDS011;73177;51.584;5.188;2024-01-07T07:28:49;22.37;;;12.37;;
83272;SDS011;73177;51.584;5.188;2024-01-07T07:31:14;24.83;;;11.70;;
83272;SDS011;73177;51.584;5.188;2024-01-07T07:33:39;23.40;;;11.63;;
83272;SDS011;73177;51.584;5.188;2024-01-07T07:36:05;21.05;;;11.82;;
83272;SDS011;73177;51.584;5.188;2024-01-07T07:38:30;21.40;;;11.10;;
83272;SDS011;73177;51.584;5.188;2024-01-07T07:40:56;22.23;;;11.57;;
83272;SDS011;73177;51.584;5.188;2024-01-07T07:43:21;20.77;;;11.17;;
83272;SDS011;73177;51.584;5.188;2024-01-07T07:45:47;23.03;;;11.17;;
83272;SDS011;73177;51.584;5.188;2024-01-07T07:48:12;19.27;;;10.43;;
83272;SDS011;73177;51.584;5.188;2024-01-07T07:50:37;20.93;;;10.60;;
83272;SDS011;73177;51.584;5.188;2024-01-07T07:53:03;21.13;;;10.97;;
83272;SDS011;73177;51.584;5.188;2024-01-07T07:55:28;22.45;;;12.40;;
83272;SDS011;73177;51.584;5.188;2024-01-07T07:57:54;19.48;;;10.40;;
83272;SDS011;73177;51.584;5.188;2024-01-07T08:00:29;15.48;;;8.63;;
83272;SDS011;73177;51.584;5.188;2024-01-07T08:02:54;17.27;;;9.90;;
83272;SDS011;73177;51.584;5.188;2024-01-07T08:05:19;20.90;;;10.83;;
83272;SDS011;73177;51.584;5.188;2024-01-07T08:07:44;20.57;;;10.40;;
83272;SDS011;73177;51.584;5.188;2024-01-07T08:10:09;21.87;;;10.67;;
83272;SDS011;73177;51.584;5.188;2024-01-07T08:12:35;23.08;;;10.70;;
83272;SDS011;73177;51.584;5.188;2024-01-07T08:15:00;19.30;;;10.00;;
83272;SDS011;73177;51.584;5.188;2024-01-07T08:17:25;20.60;;;9.93;;
83272;SDS011;73177;51.584;5.188;2024-01-07T08:19:51;18.13;;;10.33;;
83272;SDS011;73177;51.584;5.188;2024-01-07T08:22:17;22.52;;;11.18;;
83272;SDS011;73177;51.584;5.188;2024-01-07T08:24:42;23.10;;;10.63;;
83272;SDS011;73177;51.584;5.188;2024-01-07T08:27:08;21.43;;;11.03;;
83272;SDS011;73177;51.584;5.188;2024-01-07T08:29:33;18.55;;;10.95;;
83272;SDS011;73177;51.584;5.188;2024-01-07T08:31:58;23.10;;;11.23;;
83272;SDS011;73177;51.584;5.188;2024-01-07T08:34:23;23.83;;;11.63;;
83272;SDS011;73177;51.584;5.188;2024-01-07T08:36:48;20.87;;;11.10;;
83272;SDS011;73177;51.584;5.188;2024-01-07T08:39:14;21.07;;;9.77;;
83272;SDS011;73177;51.584;5.188;2024-01-07T08:41:39;18.42;;;9.63;;
83272;SDS011;73177;51.584;5.188;2024-01-07T08:44:05;18.55;;;9.15;;
83272;SDS011;73177;51.584;5.188;2024-01-07T08:46:31;18.75;;;10.35;;
83272;SDS011;73177;51.584;5.188;2024-01-07T08:48:56;18.10;;;9.70;;
83272;SDS011;73177;51.584;5.188;2024-01-07T08:51:21;18.77;;;10.67;;
83272;SDS011;73177;51.584;5.188;2024-01-07T08:53:46;18.80;;;9.17;;
83272;SDS011;73177;51.584;5.188;2024-01-07T08:56:12;17.93;;;10.10;;
83272;SDS011;73177;51.584;5.188;2024-01-07T08:58:37;17.45;;;9.95;;
83272;SDS011;73177;51.584;5.188;2024-01-07T09:01:02;20.43;;;10.50;;
83272;SDS011;73177;51.584;5.188;2024-01-07T09:03:28;13.07;;;7.95;;
83272;SDS011;73177;51.584;5.188;2024-01-07T09:05:53;21.10;;;10.00;;
83272;SDS011;73177;51.584;5.188;2024-01-07T09:08:18;13.87;;;8.10;;
83272;SDS011;73177;51.584;5.188;2024-01-07T09:10:43;19.77;;;9.30;;
83272;SDS011;73177;51.584;5.188;2024-01-07T09:13:08;17.60;;;9.80;;
83272;SDS011;73177;51.584;5.188;2024-01-07T09:15:34;17.53;;;9.00;;
83272;SDS011;73177;51.584;5.188;2024-01-07T09:17:59;20.70;;;9.33;;
83272;SDS011;73177;51.584;5.188;2024-01-07T09:20:24;19.90;;;10.13;;
83272;SDS011;73177;51.584;5.188;2024-01-07T09:22:49;20.47;;;9.50;;
83272;SDS011;73177;51.584;5.188;2024-01-07T09:25:14;16.83;;;9.23;;
83272;SDS011;73177;51.584;5.188;2024-01-07T09:27:40;17.13;;;9.10;;
83272;SDS011;73177;51.584;5.188;2024-01-07T09:30:05;15.57;;;8.50;;
83272;SDS011;73177;51.584;5.188;2024-01-07T09:32:31;15.57;;;8.55;;
83272;SDS011;73177;51.584;5.188;2024-01-07T09:34:56;15.45;;;8.68;;
83272;SDS011;73177;51.584;5.188;2024-01-07T09:37:22;19.67;;;10.10;;
83272;SDS011;73177;51.584;5.188;2024-01-07T09:39:48;19.83;;;9.80;;
83272;SDS011;73177;51.584;5.188;2024-01-07T09:42:14;17.30;;;8.77;;
83272;SDS011;73177;51.584;5.188;2024-01-07T09:44:40;15.00;;;9.45;;
83272;SDS011;73177;51.584;5.188;2024-01-07T09:47:06;21.73;;;10.73;;
83272;SDS011;73177;51.584;5.188;2024-01-07T09:49:32;15.02;;;8.65;;
83272;SDS011;73177;51.584;5.188;2024-01-07T09:51:58;16.27;;;9.30;;
83272;SDS011;73177;51.584;5.188;2024-01-07T09:54:24;17.00;;;9.75;;
83272;SDS011;73177;51.584;5.188;2024-01-07T09:56:50;15.75;;;8.20;;
83272;SDS011;73177;51.584;5.188;2024-01-07T09:59:17;19.38;;;8.25;;
83272;SDS011;73177;51.584;5.188;2024-01-07T10:01:43;15.77;;;9.23;;
83272;SDS011;73177;51.584;5.188;2024-01-07T10:04:09;15.45;;;8.40;;
83272;SDS011;73177;51.584;5.188;2024-01-07T10:06:41;15.27;;;8.68;;
83272;SDS011;73177;51.584;5.188;2024-01-07T10:09:06;11.35;;;6.45;;
83272;SDS011;73177;51.584;5.188;2024-01-07T10:11:32;15.27;;;8.37;;
83272;SDS011;73177;51.584;5.188;2024-01-07T10:13:57;10.23;;;6.47;;
83272;SDS011;73177;51.584;5.188;2024-01-07T10:16:23;9.43;;;6.00;;
83272;SDS011;73177;51.584;5.188;2024-01-07T10:18:48;10.80;;;6.70;;
83272;SDS011;73177;51.584;5.188;2024-01-07T10:21:13;12.13;;;6.57;;
83272;SDS011;73177;51.584;5.188;2024-01-07T10:23:38;12.30;;;6.10;;
83272;SDS011;73177;51.584;5.188;2024-01-07T10:26:04;11.87;;;7.23;;
83272;SDS011;73177;51.584;5.188;2024-01-07T10:28:30;11.48;;;6.53;;
83272;SDS011;73177;51.584;5.188;2024-01-07T10:30:56;14.02;;;6.38;;
83272;SDS011;73177;51.584;5.188;2024-01-07T10:33:21;11.07;;;6.17;;
83272;SDS011;73177;51.584;5.188;2024-01-07T10:35:56;13.20;;;7.03;;
83272;SDS011;73177;51.584;5.188;2024-01-07T10:38:22;11.80;;;6.00;;
83272;SDS011;73177;51.584;5.188;2024-01-07T10:40:47;15.73;;;7.97;;
83272;SDS011;73177;51.584;5.188;2024-01-07T10:43:13;13.02;;;7.03;;
83272;SDS011;73177;51.584;5.188;2024-01-07T10:45:40;15.43;;;7.22;;
83272;SDS011;73177;51.584;5.188;2024-01-07T10:48:05;11.80;;;6.83;;
83272;SDS011;73177;51.584;5.188;2024-01-07T10:50:33;13.18;;;7.20;;
83272;SDS011;73177;51.584;5.188;2024-01-07T10:53:03;14.20;;;8.03;;
83272;SDS011;73177;51.584;5.188;2024-01-07T10:55:30;13.38;;;7.47;;
83272;SDS011;73177;51.584;5.188;2024-01-07T10:57:58;12.65;;;7.63;;
83272;SDS011;73177;51.584;5.188;2024-01-07T11:00:25;12.48;;;7.40;;
83272;SDS011;73177;51.584;5.188;2024-01-07T11:05:39;12.68;;;7.15;;
83272;SDS011;73177;51.584;5.188;2024-01-07T11:08:13;15.52;;;7.07;;
83272;SDS011;73177;51.584;5.188;2024-01-07T11:10:45;13.00;;;7.38;;
83272;SDS011;73177;51.584;5.188;2024-01-07T11:13:31;12.52;;;7.38;;
83272;SDS011;73177;51.584;5.188;2024-01-07T11:15:56;12.15;;;7.65;;
83272;SDS011;73177;51.584;5.188;2024-01-07T11:20:48;13.32;;;7.07;;
83272;SDS011;73177;51.584;5.188;2024-01-07T11:26:05;13.13;;;7.60;;
83272;SDS011;73177;51.584;5.188;2024-01-07T11:31:11;13.52;;;6.88;;
83272;SDS011;73177;51.584;5.188;2024-01-07T11:33:37;11.38;;;6.95;;
83272;SDS011;73177;51.584;5.188;2024-01-07T11:36:02;14.50;;;7.30;;
83272;SDS011;73177;51.584;5.188;2024-01-07T11:38:28;13.73;;;7.60;;
83272;SDS011;73177;51.584;5.188;2024-01-07T11:40:53;12.50;;;8.73;;
83272;SDS011;73177;51.584;5.188;2024-01-07T11:43:19;13.20;;;6.85;;
83272;SDS011;73177;51.584;5.188;2024-01-07T11:45:45;13.50;;;7.27;;
83272;SDS011;73177;51.584;5.188;2024-01-07T11:48:10;17.25;;;7.57;;
83272;SDS011;73177;51.584;5.188;2024-01-07T11:50:35;13.37;;;7.00;;
83272;SDS011;73177;51.584;5.188;2024-01-07T11:53:00;13.50;;;6.87;;
83272;SDS011;73177;51.584;5.188;2024-01-07T11:55:26;13.00;;;6.73;;
83272;SDS011;73177;51.584;5.188;2024-01-07T11:57:52;11.88;;;7.18;;
83272;SDS011;73177;51.584;5.188;2024-01-07T12:00:17;12.90;;;7.90;;
83272;SDS011;73177;51.584;5.188;2024-01-07T12:02:42;15.95;;;7.30;;
83272;SDS011;73177;51.584;5.188;2024-01-07T12:05:08;10.57;;;6.93;;
83272;SDS011;73177;51.584;5.188;2024-01-07T12:07:33;10.43;;;6.23;;
83272;SDS011;73177;51.584;5.188;2024-01-07T12:10:02;13.55;;;7.22;;
83272;SDS011;73177;51.584;5.188;2024-01-07T12:12:27;8.98;;;5.80;;
83272;SDS011;73177;51.584;5.188;2024-01-07T12:14:53;11.30;;;7.32;;
83272;SDS011;73177;51.584;5.188;2024-01-07T12:17:19;14.13;;;6.38;;
83272;SDS011;73177;51.584;5.188;2024-01-07T12:19:44;14.98;;;6.50;;
83272;SDS011;73177;51.584;5.188;2024-01-07T12:22:09;11.00;;;6.00;;
83272;SDS011;73177;51.584;5.188;2024-01-07T12:24:35;11.77;;;6.03;;
83272;SDS011;73177;51.584;5.188;2024-01-07T12:27:06;8.00;;;5.05;;
83272;SDS011;73177;51.584;5.188;2024-01-07T12:29:32;9.65;;;5.60;;
83272;SDS011;73177;51.584;5.188;2024-01-07T12:31:57;8.80;;;5.00;;
83272;SDS011;73177;51.584;5.188;2024-01-07T12:34:22;9.07;;;5.17;;
83272;SDS011;73177;51.584;5.188;2024-01-07T12:36:50;10.63;;;6.63;;
83272;SDS011;73177;51.584;5.188;2024-01-07T12:39:16;8.18;;;5.00;;
83272;SDS011;73177;51.584;5.188;2024-01-07T12:41:41;8.97;;;5.47;;
83272;SDS011;73177;51.584;5.188;2024-01-07T12:44:06;10.37;;;5.67;;
83272;SDS011;73177;51.584;5.188;2024-01-07T12:46:33;11.85;;;5.82;;
83272;SDS011;73177;51.584;5.188;2024-01-07T12:48:58;10.53;;;5.77;;
83272;SDS011;73177;51.584;5.188;2024-01-07T12:51:23;10.87;;;6.43;;
83272;SDS011;73177;51.584;5.188;2024-01-07T12:53:49;9.40;;;5.17;;
83272;SDS011;73177;51.584;5.188;2024-01-07T12:56:14;8.47;;;5.40;;
83272;SDS011;73177;51.584;5.188;2024-01-07T12:58:39;9.23;;;5.53;;
83272;SDS011;73177;51.584;5.188;2024-01-07T13:01:04;7.33;;;5.57;;
83272;SDS011;73177;51.584;5.188;2024-01-07T13:03:29;9.00;;;5.47;;
83272;SDS011;73177;51.584;5.188;2024-01-07T13:05:55;8.73;;;5.57;;
83272;SDS011;73177;51.584;5.188;2024-01-07T13:08:20;8.23;;;4.67;;
83272;SDS011;73177;51.584;5.188;2024-01-07T13:10:50;7.88;;;4.88;;
83272;SDS011;73177;51.584;5.188;2024-01-07T13:13:16;5.93;;;4.10;;
83272;SDS011;73177;51.584;5.188;2024-01-07T13:18:07;9.03;;;3.27;;
83272;SDS011;73177;51.584;5.188;2024-01-07T13:20:33;6.83;;;3.83;;
83272;SDS011;73177;51.584;5.188;2024-01-07T13:23:00;5.55;;;3.75;;
83272;SDS011;73177;51.584;5.188;2024-01-07T13:25:25;5.50;;;3.38;;
83272;SDS011;73177;51.584;5.188;2024-01-07T13:27:51;4.67;;;3.20;;
83272;SDS011;73177;51.584;5.188;2024-01-07T13:30:16;5.10;;;3.65;;
83272;SDS011;73177;51.584;5.188;2024-01-07T13:32:41;5.20;;;2.87;;
83272;SDS011;73177;51.584;5.188;2024-01-07T13:35:07;4.23;;;3.13;;
83272;SDS011;73177;51.584;5.188;2024-01-07T13:37:38;7.60;;;3.35;;
83272;SDS011;73177;51.584;5.188;2024-01-07T13:40:07;7.45;;;3.60;;
83272;SDS011;73177;51.584;5.188;2024-01-07T13:42:35;5.43;;;3.30;;
83272;SDS011;73177;51.584;5.188;2024-01-07T13:45:00;6.63;;;3.30;;
83272;SDS011;73177;51.584;5.188;2024-01-07T13:47:25;4.70;;;2.60;;
83272;SDS011;73177;51.584;5.188;2024-01-07T13:49:50;5.93;;;3.13;;
83272;SDS011;73177;51.584;5.188;2024-01-07T13:52:15;5.70;;;2.63;;
83272;SDS011;73177;51.584;5.188;2024-01-07T13:54:41;6.50;;;2.60;;
83272;SDS011;73177;51.584;5.188;2024-01-07T13:57:06;4.77;;;2.40;;
83272;SDS011;73177;51.584;5.188;2024-01-07T13:59:32;3.67;;;2.08;;
83272;SDS011;73177;51.584;5.188;2024-01-07T14:01:57;2.03;;;1.57;;
83272;SDS011;73177;51.584;5.188;2024-01-07T14:04:25;3.13;;;2.03;;
83272;SDS011;73177;51.584;5.188;2024-01-07T14:06:53;3.00;;;1.73;;
83272;SDS011;73177;51.584;5.188;2024-01-07T14:09:19;3.38;;;2.15;;
83272;SDS011;73177;51.584;5.188;2024-01-07T14:11:44;3.83;;;2.23;;
83272;SDS011;73177;51.584;5.188;2024-01-07T14:14:10;6.03;;;2.40;;
83272;SDS011;73177;51.584;5.188;2024-01-07T14:16:35;4.70;;;2.27;;
83272;SDS011;73177;51.584;5.188;2024-01-07T14:19:01;4.30;;;2.45;;
83272;SDS011;73177;51.584;5.188;2024-01-07T14:21:26;2.60;;;2.13;;
83272;SDS011;73177;51.584;5.188;2024-01-07T14:23:52;7.90;;;2.53;;
83272;SDS011;73177;51.584;5.188;2024-01-07T14:26:17;4.87;;;1.87;;
83272;SDS011;73177;51.584;5.188;2024-01-07T14:28:44;3.22;;;2.17;;
83272;SDS011;73177;51.584;5.188;2024-01-07T14:31:09;3.57;;;2.33;;
83272;SDS011;73177;51.584;5.188;2024-01-07T14:33:35;2.63;;;2.07;;